Wetterdaten: Woche 15.07.02 - 21.07.02 (KW29)
Datum Zeit Temperatur Luftfeuchte Luftdruck Regenmenge Wind Richtung Taupunkt Windchill
15.07.2002 00:00 16.7 C 86 % 1018.0 hPa 0.0 l/m 0.0 km/h (0 Bft) N 14.3 C 16.7 C
15.07.2002 01:00 15.6 C 94 % 1018.0 hPa 0.0 l/m 0.0 km/h (0 Bft) N 14.7 C 15.6 C
15.07.2002 02:00 15.1 C 98 % 1017.2 hPa 0.0 l/m 0.1 km/h (0 Bft) NW 14.8 C 15.1 C
15.07.2002 03:00 15.4 C 96 % 1017.0 hPa 0.0 l/m 0.1 km/h (0 Bft) N 14.8 C 15.4 C
15.07.2002 04:00 15.4 C 95 % 1016.0 hPa 0.0 l/m 0.4 km/h (0 Bft) W-NW 14.6 C 15.4 C
15.07.2002 05:00 15.4 C 96 % 1015.9 hPa 0.0 l/m 0.3 km/h (0 Bft) W-NW 14.7 C 15.4 C
15.07.2002 06:00 15.5 C 98 % 1015.9 hPa 0.6 l/m 0.0 km/h (0 Bft) N 15.2 C 15.5 C
15.07.2002 07:00 15.8 C 99 % 1015.9 hPa 0.0 l/m 0.0 km/h (0 Bft) N 15.7 C 15.8 C
15.07.2002 08:00 16.4 C 98 % 1015.9 hPa 0.0 l/m 0.0 km/h (0 Bft) N 16.0 C 16.4 C
15.07.2002 09:00 17.0 C 95 % 1015.9 hPa 0.6 l/m 0.0 km/h (0 Bft) N 16.2 C 17.0 C
15.07.2002 10:00 18.6 C 90 % 1015.0 hPa 0.0 l/m 0.1 km/h (0 Bft) N 16.8 C 18.6 C
15.07.2002 11:00 18.9 C 86 % 1014.9 hPa 0.0 l/m 0.5 km/h (0 Bft) N-NO 16.4 C 18.9 C
15.07.2002 12:00 18.4 C 91 % 1014.9 hPa 3.0 l/m 1.9 km/h (1 Bft) O-SO 17.0 C 18.4 C
15.07.2002 13:00 18.8 C 93 % 1014.1 hPa 1.5 l/m 2.1 km/h (1 Bft) N-NO 17.6 C 18.8 C
15.07.2002 14:00 20.0 C 89 % 1013.5 hPa 0.0 l/m 1.4 km/h (1 Bft) NO 18.2 C 20.0 C
15.07.2002 15:00 21.6 C 80 % 1012.8 hPa 0.0 l/m 2.8 km/h (1 Bft) N-NO 18.0 C 21.6 C
15.07.2002 16:00 21.4 C 76 % 1012.1 hPa 0.0 l/m 2.4 km/h (1 Bft) NO 17.0 C 21.4 C
15.07.2002 17:00 20.7 C 78 % 1011.8 hPa 0.0 l/m 3.5 km/h (1 Bft) N-NO 16.7 C 20.7 C
15.07.2002 18:00 20.5 C 78 % 1011.8 hPa 0.0 l/m 2.0 km/h (1 Bft) N 16.4 C 20.5 C
15.07.2002 19:00 20.5 C 75 % 1011.8 hPa 0.0 l/m 3.1 km/h (1 Bft) N 16.0 C 20.5 C
15.07.2002 20:00 20.0 C 76 % 1011.8 hPa 0.0 l/m 1.8 km/h (1 Bft) N-NO 15.7 C 20.0 C
15.07.2002 21:00 19.7 C 77 % 1011.1 hPa 0.0 l/m 3.9 km/h (1 Bft) N 15.5 C 19.7 C
15.07.2002 22:00 19.5 C 76 % 1010.8 hPa 0.0 l/m 7.6 km/h (2 Bft) N-NO 15.2 C 19.5 C
15.07.2002 23:00 19.5 C 76 % 1010.8 hPa 0.0 l/m 3.2 km/h (1 Bft) N 15.1 C 19.5 C
16.07.2002 00:00 18.3 C 87 % 1010.8 hPa 0.6 l/m 2.8 km/h (1 Bft) N-NO 16.1 C 18.3 C
16.07.2002 01:00 18.2 C 86 % 1010.7 hPa 0.0 l/m 1.1 km/h (1 Bft) O-NO 15.9 C 18.2 C
16.07.2002 02:00 17.6 C 91 % 1009.8 hPa 0.3 l/m 1.4 km/h (1 Bft) O-NO 16.1 C 17.6 C
16.07.2002 03:00 17.2 C 95 % 1009.7 hPa 0.3 l/m 1.1 km/h (1 Bft) O-SO 16.4 C 17.2 C
16.07.2002 04:00 16.9 C 96 % 1009.7 hPa 0.0 l/m 0.7 km/h (0 Bft) O-SO 16.2 C 16.9 C
16.07.2002 05:00 16.7 C 95 % 1009.7 hPa 0.0 l/m 0.1 km/h (0 Bft) N 15.9 C 16.7 C
16.07.2002 06:00 16.7 C 95 % 1009.7 hPa 0.0 l/m 0.0 km/h (0 Bft) N 15.9 C 16.7 C
16.07.2002 07:00 16.8 C 95 % 1009.9 hPa 0.0 l/m 0.2 km/h (0 Bft) O-SO 16.0 C 16.8 C
16.07.2002 08:00 17.0 C 94 % 1010.4 hPa 0.0 l/m 0.1 km/h (0 Bft) NW 16.1 C 17.0 C
16.07.2002 09:00 17.4 C 88 % 1010.6 hPa 0.0 l/m 0.1 km/h (0 Bft) N 15.4 C 17.4 C
16.07.2002 10:00 18.0 C 87 % 1010.4 hPa 0.0 l/m 0.3 km/h (0 Bft) W-NW 15.7 C 18.0 C
16.07.2002 11:00 18.1 C 87 % 1010.8 hPa 0.0 l/m 4.2 km/h (1 Bft) NW 15.9 C 18.1 C
16.07.2002 12:00 18.0 C 84 % 1010.8 hPa 0.0 l/m 4.6 km/h (1 Bft) W-NW 15.3 C 18.0 C
16.07.2002 13:00 17.9 C 84 % 1010.8 hPa 0.0 l/m 6.4 km/h (2 Bft) NW 15.1 C 17.9 C
16.07.2002 14:00 17.9 C 83 % 1010.8 hPa 0.0 l/m 9.1 km/h (2 Bft) NW 15.0 C 17.9 C
16.07.2002 15:00 17.2 C 86 % 1010.8 hPa 0.0 l/m 11.3 km/h (2 Bft) W-NW 14.8 C 17.2 C
16.07.2002 16:00 16.9 C 88 % 1010.8 hPa 0.0 l/m 4.0 km/h (1 Bft) NW 15.0 C 16.9 C
16.07.2002 17:00 16.5 C 91 % 1010.8 hPa 0.0 l/m 7.4 km/h (2 Bft) W-NW 15.1 C 16.5 C
16.07.2002 18:00 16.6 C 91 % 1010.8 hPa 0.0 l/m 3.3 km/h (1 Bft) W 15.1 C 16.6 C
16.07.2002 19:00 16.6 C 90 % 1010.9 hPa 0.0 l/m 7.4 km/h (2 Bft) NW 15.0 C 16.6 C
16.07.2002 20:00 16.6 C 89 % 1011.7 hPa 0.0 l/m 2.1 km/h (1 Bft) W-NW 14.8 C 16.6 C
16.07.2002 21:00 16.6 C 89 % 1011.8 hPa 0.0 l/m 1.0 km/h (0 Bft) W-NW 14.8 C 16.6 C
16.07.2002 22:00 16.4 C 91 % 1011.8 hPa 0.3 l/m 1.6 km/h (1 Bft) W-NW 14.9 C 16.4 C
16.07.2002 23:00 16.1 C 95 % 1011.8 hPa 0.0 l/m 0.1 km/h (0 Bft) N 15.3 C 16.1 C
17.07.2002 00:00 15.9 C 97 % 1011.8 hPa 1.5 l/m 0.5 km/h (0 Bft) W 15.4 C 15.9 C
17.07.2002 01:00 15.9 C 99 % 1011.8 hPa 0.0 l/m 0.3 km/h (0 Bft) W-NW 15.7 C 15.9 C
17.07.2002 02:00 16.0 C 98 % 1011.4 hPa 0.0 l/m 0.3 km/h (0 Bft) N 15.7 C 16.0 C
17.07.2002 03:00 16.0 C 99 % 1010.8 hPa 0.0 l/m 0.0 km/h (0 Bft) N 15.9 C 16.0 C
17.07.2002 04:00 15.9 C 100 % 1010.8 hPa 0.0 l/m 0.3 km/h (0 Bft) SO 15.9 C 15.9 C
17.07.2002 05:00 16.0 C 100 % 1010.8 hPa 0.9 l/m 1.8 km/h (1 Bft) SO 16.0 C 16.0 C
17.07.2002 06:00 16.0 C 100 % 1010.8 hPa 0.0 l/m 0.2 km/h (0 Bft) SO 16.0 C 16.0 C
17.07.2002 07:00 16.2 C 100 % 1010.8 hPa 0.0 l/m 2.6 km/h (1 Bft) W 16.2 C 16.2 C
17.07.2002 08:00 16.4 C 99 % 1010.8 hPa 2.4 l/m 3.6 km/h (1 Bft) W 16.2 C 16.4 C
17.07.2002 09:00 16.6 C 100 % 1010.8 hPa 3.0 l/m 0.1 km/h (0 Bft) N 16.5 C 16.6 C
17.07.2002 10:00 16.7 C 99 % 1010.8 hPa 2.7 l/m 1.1 km/h (1 Bft) NW 16.6 C 16.7 C
17.07.2002 11:00 16.4 C 99 % 1010.9 hPa 4.2 l/m 8.0 km/h (2 Bft) W-NW 16.3 C 16.4 C
17.07.2002 12:00 16.5 C 100 % 1011.8 hPa 2.4 l/m 3.5 km/h (1 Bft) W-NW 16.5 C 16.5 C
17.07.2002 13:00 16.2 C 99 % 1011.8 hPa 6.0 l/m 11.2 km/h (2 Bft) NW 16.1 C 16.2 C
17.07.2002 14:00 15.8 C 100 % 1012.3 hPa 3.3 l/m 7.4 km/h (2 Bft) NW 15.7 C 15.8 C
17.07.2002 15:00 15.1 C 99 % 1012.9 hPa 3.6 l/m 8.9 km/h (2 Bft) NW 15.0 C 15.1 C
17.07.2002 16:00 14.6 C 99 % 1013.9 hPa 0.3 l/m 12.4 km/h (3 Bft) NW 14.5 C 14.6 C
17.07.2002 17:00 14.4 C 98 % 1013.9 hPa 0.6 l/m 11.4 km/h (2 Bft) NW 14.0 C 14.4 C
17.07.2002 18:00 14.2 C 98 % 1014.9 hPa 1.2 l/m 4.6 km/h (1 Bft) NW 13.9 C 14.2 C
17.07.2002 19:00 14.2 C 100 % 1014.9 hPa 1.2 l/m 0.8 km/h (0 Bft) W-NW 14.1 C 14.2 C
17.07.2002 20:00 14.0 C 100 % 1015.3 hPa 0.6 l/m 2.4 km/h (1 Bft) SO 14.0 C 14.0 C
17.07.2002 21:00 14.4 C 100 % 1015.9 hPa 0.0 l/m 1.5 km/h (1 Bft) W-SW 14.4 C 14.4 C
17.07.2002 22:00 14.4 C 100 % 1015.9 hPa 0.0 l/m 2.3 km/h (1 Bft) NW 14.3 C 14.4 C
17.07.2002 23:00 14.2 C 100 % 1015.9 hPa 0.0 l/m 1.4 km/h (1 Bft) O-SO 14.2 C 14.2 C
18.07.2002 00:00 14.4 C 99 % 1015.9 hPa 0.0 l/m 1.0 km/h (0 Bft) SO 14.2 C 14.4 C
18.07.2002 01:00 14.2 C 100 % 1015.9 hPa 0.0 l/m 3.8 km/h (1 Bft) SO 14.1 C 14.2 C
18.07.2002 02:00 14.2 C 100 % 1015.9 hPa 0.0 l/m 2.3 km/h (1 Bft) SO 14.2 C 14.2 C
18.07.2002 03:00 14.5 C 100 % 1015.9 hPa 0.6 l/m 3.7 km/h (1 Bft) SO 14.5 C 14.5 C
18.07.2002 04:00 14.4 C 100 % 1015.9 hPa 0.0 l/m 0.0 km/h (0 Bft) N 14.4 C 14.4 C
18.07.2002 05:00 14.3 C 100 % 1015.9 hPa 0.3 l/m 0.0 km/h (0 Bft) N 14.3 C 14.3 C
18.07.2002 06:00 14.4 C 100 % 1015.9 hPa 0.0 l/m 0.0 km/h (0 Bft) N 14.4 C 14.4 C
18.07.2002 07:00 14.8 C 100 % 1015.9 hPa 0.0 l/m 0.0 km/h (0 Bft) N 14.8 C 14.8 C
18.07.2002 08:00 15.4 C 100 % 1015.9 hPa 0.0 l/m 0.4 km/h (0 Bft) SO 15.4 C 15.4 C
18.07.2002 09:00 16.6 C 95 % 1015.9 hPa 0.0 l/m 0.3 km/h (0 Bft) S-SO 15.8 C 16.6 C
18.07.2002 10:00 17.8 C 85 % 1015.9 hPa 0.0 l/m 1.5 km/h (1 Bft) SO 15.3 C 17.8 C
18.07.2002 11:00 17.4 C 87 % 1015.9 hPa 0.0 l/m 1.0 km/h (0 Bft) SO 15.1 C 17.4 C
18.07.2002 12:00 18.3 C 82 % 1015.9 hPa 0.0 l/m 2.2 km/h (1 Bft) SO 15.1 C 18.3 C
18.07.2002 13:00 18.2 C 79 % 1015.9 hPa 0.0 l/m 0.7 km/h (0 Bft) SO 14.5 C 18.2 C
18.07.2002 14:00 20.3 C 71 % 1015.9 hPa 0.0 l/m 0.4 km/h (0 Bft) W 14.7 C 20.3 C
18.07.2002 15:00 21.8 C 57 % 1015.8 hPa 0.0 l/m 1.3 km/h (1 Bft) NW 12.9 C 21.8 C
18.07.2002 16:00 22.1 C 57 % 1014.9 hPa 0.0 l/m 0.6 km/h (0 Bft) O-SO 13.2 C 22.1 C
18.07.2002 17:00 20.5 C 66 % 1014.9 hPa 0.0 l/m 1.0 km/h (0 Bft) SO 13.9 C 20.5 C
18.07.2002 18:00 20.4 C 69 % 1014.9 hPa 0.0 l/m 1.1 km/h (1 Bft) W-NW 14.5 C 20.4 C
18.07.2002 19:00 19.4 C 72 % 1014.9 hPa 0.0 l/m 0.6 km/h (0 Bft) O 14.1 C 19.4 C
18.07.2002 20:00 18.6 C 70 % 1015.3 hPa 0.0 l/m 1.7 km/h (1 Bft) O 12.9 C 18.6 C
18.07.2002 21:00 17.7 C 74 % 1015.9 hPa 0.0 l/m 1.0 km/h (0 Bft) SO 13.0 C 17.7 C
18.07.2002 22:00 17.1 C 72 % 1016.0 hPa 0.0 l/m 5.2 km/h (1 Bft) O-SO 12.0 C 17.1 C
18.07.2002 23:00 16.4 C 72 % 1017.0 hPa 0.0 l/m 1.9 km/h (1 Bft) O-NO 11.4 C 16.4 C
19.07.2002 00:00 15.1 C 81 % 1016.4 hPa 0.0 l/m 1.0 km/h (0 Bft) NO 11.9 C 15.1 C
19.07.2002 01:00 14.7 C 86 % 1017.0 hPa 0.0 l/m 0.2 km/h (0 Bft) NW 12.4 C 14.7 C
19.07.2002 02:00 14.4 C 87 % 1016.4 hPa 0.0 l/m 0.0 km/h (0 Bft) N 12.2 C 14.4 C
19.07.2002 03:00 13.5 C 90 % 1016.0 hPa 0.0 l/m 0.0 km/h (0 Bft) N 11.9 C 13.5 C
19.07.2002 04:00 12.9 C 94 % 1016.6 hPa 0.0 l/m 0.0 km/h (0 Bft) N 11.9 C 12.9 C
19.07.2002 05:00 12.2 C 97 % 1016.4 hPa 0.0 l/m 0.0 km/h (0 Bft) N 11.8 C 12.2 C
19.07.2002 06:00 11.9 C 98 % 1015.9 hPa 0.0 l/m 0.0 km/h (0 Bft) N 11.6 C 11.9 C
19.07.2002 07:00 12.5 C 95 % 1016.0 hPa 0.0 l/m 0.0 km/h (0 Bft) N 11.7 C 12.5 C
19.07.2002 08:00 14.0 C 85 % 1016.9 hPa 0.0 l/m 0.0 km/h (0 Bft) N 11.4 C 14.0 C
19.07.2002 09:00 16.1 C 72 % 1017.0 hPa 0.0 l/m 1.3 km/h (1 Bft) SO 10.9 C 16.1 C
19.07.2002 10:00 18.2 C 65 % 1017.0 hPa 0.0 l/m 7.1 km/h (2 Bft) O-SO 11.4 C 18.2 C
19.07.2002 11:00 19.9 C 57 % 1017.0 hPa 0.0 l/m 6.4 km/h (2 Bft) SO 11.2 C 19.9 C
19.07.2002 12:00 20.8 C 55 % 1016.1 hPa 0.0 l/m 2.0 km/h (1 Bft) NW 11.4 C 20.8 C
19.07.2002 13:00 21.8 C 49 % 1015.9 hPa 0.0 l/m 5.5 km/h (1 Bft) NW 10.8 C 21.8 C
19.07.2002 14:00 23.4 C 44 % 1015.9 hPa 0.0 l/m 3.2 km/h (1 Bft) W-NW 10.5 C 23.4 C
19.07.2002 15:00 24.8 C 39 % 1015.7 hPa 0.0 l/m 5.1 km/h (1 Bft) W-NW 10.0 C 24.8 C
19.07.2002 16:00 25.1 C 38 % 1014.9 hPa 0.0 l/m 1.4 km/h (1 Bft) W-NW 9.9 C 25.1 C
19.07.2002 17:00 25.3 C 38 % 1014.9 hPa 0.0 l/m 2.4 km/h (1 Bft) W-NW 10.0 C 25.3 C
19.07.2002 18:00 25.3 C 38 % 1014.9 hPa 0.0 l/m 6.2 km/h (2 Bft) W-NW 10.0 C 25.3 C
19.07.2002 19:00 24.1 C 38 % 1014.9 hPa 0.0 l/m 1.4 km/h (1 Bft) W-NW 8.7 C 24.1 C
19.07.2002 20:00 22.1 C 50 % 1015.1 hPa 0.0 l/m 0.0 km/h (0 Bft) N 11.0 C 22.1 C
19.07.2002 21:00 18.1 C 63 % 1015.9 hPa 0.0 l/m 4.0 km/h (1 Bft) SO 10.9 C 18.1 C
19.07.2002 22:00 15.9 C 74 % 1016.7 hPa 0.0 l/m 2.3 km/h (1 Bft) SO 11.3 C 15.9 C
19.07.2002 23:00 14.2 C 83 % 1017.0 hPa 0.0 l/m 4.8 km/h (1 Bft) O-SO 11.3 C 14.2 C
20.07.2002 00:00 13.0 C 90 % 1017.0 hPa 0.0 l/m 0.0 km/h (0 Bft) N 11.3 C 13.0 C
20.07.2002 01:00 12.1 C 94 % 1017.0 hPa 0.0 l/m 0.3 km/h (0 Bft) O-SO 11.2 C 12.1 C
20.07.2002 02:00 11.5 C 97 % 1017.0 hPa 0.0 l/m 0.7 km/h (0 Bft) O-SO 11.0 C 11.5 C
20.07.2002 03:00 11.1 C 98 % 1017.0 hPa 0.0 l/m 0.8 km/h (0 Bft) O-SO 10.9 C 11.1 C
20.07.2002 04:00 10.5 C 100 % 1017.0 hPa 0.0 l/m 0.3 km/h (0 Bft) O-SO 10.4 C 10.5 C
20.07.2002 05:00 10.2 C 100 % 1017.0 hPa 0.0 l/m 1.4 km/h (1 Bft) O-SO 10.2 C 10.2 C
20.07.2002 06:00 10.5 C 100 % 1017.0 hPa 0.0 l/m 0.4 km/h (0 Bft) O-SO 10.4 C 10.5 C
20.07.2002 07:00 12.0 C 96 % 1018.0 hPa 0.0 l/m 0.0 km/h (0 Bft) N 11.4 C 12.0 C
20.07.2002 08:00 13.8 C 90 % 1018.0 hPa 0.0 l/m 0.0 km/h (0 Bft) N 12.1 C 13.8 C
20.07.2002 09:00 16.6 C 78 % 1018.0 hPa 0.0 l/m 3.0 km/h (1 Bft) SO 12.8 C 16.6 C
20.07.2002 10:00 19.0 C 66 % 1018.0 hPa 0.0 l/m 3.4 km/h (1 Bft) SO 12.5 C 19.0 C
20.07.2002 11:00 21.7 C 59 % 1018.0 hPa 0.0 l/m 4.8 km/h (1 Bft) SO 13.3 C 21.7 C
20.07.2002 12:00 23.4 C 50 % 1017.3 hPa 0.0 l/m 13.1 km/h (3 Bft) NW 12.3 C 23.4 C
20.07.2002 13:00 24.5 C 45 % 1017.0 hPa 0.0 l/m 14.4 km/h (3 Bft) NW 11.7 C 24.5 C
20.07.2002 14:00 25.7 C 43 % 1016.5 hPa 0.0 l/m 9.6 km/h (2 Bft) NW 12.3 C 25.7 C
20.07.2002 15:00 26.8 C 42 % 1015.9 hPa 0.0 l/m 7.1 km/h (2 Bft) NW 13.0 C 26.8 C
20.07.2002 16:00 27.4 C 44 % 1015.9 hPa 0.0 l/m 8.0 km/h (2 Bft) NW 14.1 C 27.4 C
20.07.2002 17:00 27.7 C 47 % 1015.0 hPa 0.0 l/m 3.0 km/h (1 Bft) W-NW 15.5 C 27.7 C
20.07.2002 18:00 27.3 C 50 % 1014.9 hPa 0.0 l/m 6.3 km/h (2 Bft) W-NW 15.8 C 27.3 C
20.07.2002 19:00 26.5 C 52 % 1014.9 hPa 0.0 l/m 0.6 km/h (0 Bft) W-NW 15.8 C 26.5 C
20.07.2002 20:00 24.7 C 60 % 1014.4 hPa 0.0 l/m 0.8 km/h (0 Bft) S-SO 16.3 C 24.7 C
20.07.2002 21:00 20.6 C 75 % 1013.9 hPa 0.0 l/m 3.9 km/h (1 Bft) O-SO 16.0 C 20.6 C
20.07.2002 22:00 18.5 C 85 % 1013.9 hPa 0.0 l/m 1.6 km/h (1 Bft) O-SO 16.0 C 18.5 C
20.07.2002 23:00 17.1 C 91 % 1013.9 hPa 0.0 l/m 0.1 km/h (0 Bft) O-SO 15.6 C 17.1 C
21.07.2002 00:00 16.3 C 94 % 1013.9 hPa 0.0 l/m 0.9 km/h (0 Bft) O-SO 15.3 C 16.3 C
21.07.2002 01:00 15.6 C 97 % 1013.9 hPa 0.0 l/m 3.5 km/h (1 Bft) O-SO 15.1 C 15.6 C
21.07.2002 02:00 15.0 C 98 % 1013.9 hPa 0.0 l/m 0.8 km/h (0 Bft) O-SO 14.8 C 15.0 C
21.07.2002 03:00 14.1 C 100 % 1013.9 hPa 0.0 l/m 0.2 km/h (0 Bft) O-SO 14.1 C 14.1 C
21.07.2002 04:00 13.9 C 100 % 1013.9 hPa 0.0 l/m 0.1 km/h (0 Bft) O-SO 13.9 C 13.9 C
21.07.2002 05:00 13.6 C 100 % 1013.6 hPa 0.0 l/m 0.0 km/h (0 Bft) N 13.6 C 13.6 C
21.07.2002 06:00 13.8 C 99 % 1013.9 hPa 0.0 l/m 0.0 km/h (0 Bft) N 13.7 C 13.8 C
21.07.2002 07:00 14.8 C 97 % 1013.4 hPa 0.0 l/m 0.0 km/h (0 Bft) N 14.3 C 14.8 C
21.07.2002 08:00 16.7 C 89 % 1013.0 hPa 0.0 l/m 0.2 km/h (0 Bft) W-NW 15.0 C 16.7 C
21.07.2002 09:00 17.8 C 85 % 1013.8 hPa 1.5 l/m 3.1 km/h (1 Bft) O-SO 15.3 C 17.8 C
21.07.2002 10:00 17.3 C 95 % 1014.7 hPa 4.2 l/m 11.6 km/h (2 Bft) SO 16.5 C 17.3 C
21.07.2002 11:00 18.2 C 92 % 1015.9 hPa 0.0 l/m 9.5 km/h (2 Bft) S-SO 17.0 C 18.2 C
21.07.2002 12:00 19.6 C 85 % 1015.9 hPa 0.0 l/m 4.5 km/h (1 Bft) S-SO 17.0 C 19.6 C
21.07.2002 13:00 21.3 C 75 % 1015.9 hPa 0.0 l/m 10.5 km/h (2 Bft) S 16.7 C 21.3 C
21.07.2002 14:00 22.4 C 68 % 1015.4 hPa 0.0 l/m 14.6 km/h (3 Bft) S 16.3 C 22.4 C
21.07.2002 15:00 23.3 C 64 % 1014.9 hPa 0.0 l/m 11.7 km/h (2 Bft) NW 16.1 C 23.3 C
21.07.2002 16:00 21.2 C 75 % 1014.9 hPa 0.0 l/m 8.6 km/h (2 Bft) NW 16.5 C 21.2 C
21.07.2002 17:00 21.9 C 75 % 1014.9 hPa 0.0 l/m 5.2 km/h (1 Bft) W-NW 17.3 C 21.9 C
21.07.2002 18:00 22.6 C 69 % 1014.9 hPa 0.0 l/m 3.9 km/h (1 Bft) W-NW 16.5 C 22.6 C
21.07.2002 19:00 21.8 C 67 % 1014.9 hPa 0.0 l/m 4.6 km/h (1 Bft) W-NW 15.3 C 21.8 C
21.07.2002 20:00 20.2 C 72 % 1014.9 hPa 0.0 l/m 4.0 km/h (1 Bft) NW 14.9 C 20.2 C
21.07.2002 21:00 18.6 C 80 % 1014.9 hPa 0.0 l/m 1.0 km/h (0 Bft) O 15.1 C 18.6 C
21.07.2002 22:00 17.1 C 86 % 1015.9 hPa 0.0 l/m 0.8 km/h (0 Bft) O 14.8 C 17.1 C
21.07.2002 23:00 16.1 C 91 % 1016.3 hPa 0.0 l/m 2.8 km/h (1 Bft) O 14.6 C 16.1 C
Min-Datum _ 20.07.02 19.07.02 16.07.02 - 15.07.02 - 19.07.02 20.07.02
_ Min-Zeit 05:49 19:21 03:00 - 00:02 - 19:21 05:49
Minimum _ 9.9 C 33 % 1009.7 hPa - 0.0 km/h (0 Bft) - 7.0 C 9.9 C
Max-Datum _ 20.07.02 15.07.02 15.07.02 17.07.02 21.07.02 - 15.07.02 20.07.02
_ Max-Zeit 16:19 02:38 00:00 12:00 10:14 - 15:23 16:19
Maximum _ 28.1 C 100 % 1018.0 hPa 6.0 l/m 40.9 km/h
SO (6 Bft)
- 19.3 C 28.1 C
Durchschnitt _ 17.6 C 84 % 1014.3 hPa #47.7 l/m 2.8 km/h (1 Bft) NW 14.3 C 17.6 C

Durchschnitt Minimum Temp.17.0 C
Durchschnitt Maximum Temp.18.3 C
© Kaiko 2002